createdAt,value
2022-12-09T00:01:36.179Z,100357.09
2022-12-09T00:04:05.569Z,100362.50
2022-12-09T00:06:35.208Z,100366.31
2022-12-09T00:09:04.734Z,100360.75
2022-12-09T00:11:34.347Z,100365.97
2022-12-09T00:16:41.718Z,100367.88
2022-12-09T00:19:11.389Z,100365.28
2022-12-09T00:21:42.256Z,100372.94
2022-12-09T00:24:13.849Z,100372.94
2022-12-09T00:26:48.441Z,100374.31
2022-12-09T00:29:19.789Z,100375.22
2022-12-09T00:31:49.048Z,100321.38
2022-12-09T00:34:18.479Z,100379.28
2022-12-09T00:36:47.735Z,100378.72
2022-12-09T00:39:16.928Z,100372.78
2022-12-09T00:41:46.235Z,100365.66
2022-12-09T00:44:15.345Z,100369.47
2022-12-09T00:46:46.769Z,100357.88
2022-12-09T00:49:16.225Z,100370.34
2022-12-09T00:51:45.516Z,100348.97
2022-12-09T00:54:15.027Z,100364.06
2022-12-09T00:56:44.521Z,100354.81
2022-12-09T00:59:13.940Z,100370.31
2022-12-09T01:01:43.310Z,100349.34
2022-12-09T01:04:16.897Z,100367.84
2022-12-09T01:06:51.452Z,100366.38
2022-12-09T01:09:21.066Z,100373.88
2022-12-09T01:11:50.591Z,100368.19
2022-12-09T01:14:24.968Z,100384.34
2022-12-09T01:16:59.369Z,100381.88
2022-12-09T01:19:30.829Z,100372.06
2022-12-09T01:22:01.162Z,100383.47
2022-12-09T01:24:30.615Z,100368.91
2022-12-09T01:26:59.864Z,100371.88
2022-12-09T01:29:33.962Z,100366.84
2022-12-09T01:32:03.526Z,100371.16
2022-12-09T01:34:35.733Z,100365.94
2022-12-09T01:37:15.065Z,100359.16
2022-12-09T01:39:45.577Z,100367.84
2022-12-09T01:42:21.581Z,100367.84
2022-12-09T01:48:11.062Z,100354.00
2022-12-09T01:50:51.059Z,100363.28
2022-12-09T01:53:28.015Z,100343.53
2022-12-09T01:56:02.079Z,100346.06
2022-12-09T01:58:32.092Z,100353.13
2022-12-09T02:01:01.315Z,100360.06
2022-12-09T02:03:30.757Z,100361.44
2022-12-09T02:06:02.478Z,100353.78
2022-12-09T02:08:31.953Z,100354.84
2022-12-09T02:11:11.945Z,100333.31
2022-12-09T02:13:56.440Z,100356.19
2022-12-09T02:16:35.107Z,100341.84
2022-12-09T02:19:17.019Z,100356.00
2022-12-09T02:22:00.672Z,100359.50
2022-12-09T02:24:40.720Z,100354.34
2022-12-09T02:27:18.885Z,100353.53
2022-12-09T02:30:15.433Z,100312.97
2022-12-09T02:33:15.616Z,100321.41
2022-12-09T02:35:54.325Z,100350.84
2022-12-09T02:38:32.495Z,100346.06
2022-12-09T02:41:11.707Z,100333.72
2022-12-09T02:43:50.765Z,100348.06
2022-12-09T02:46:26.848Z,100352.28
2022-12-09T02:49:00.341Z,100349.06
2022-12-09T02:51:35.574Z,100346.78
2022-12-09T02:54:11.946Z,100346.06
2022-12-09T02:56:55.132Z,100348.78
2022-12-09T02:59:25.838Z,100350.16
2022-12-09T03:02:03.402Z,100354.69
2022-12-09T03:04:33.875Z,100342.41
2022-12-09T03:07:14.165Z,100340.81
2022-12-09T03:09:49.967Z,100330.06
2022-12-09T03:12:23.394Z,100337.84
2022-12-09T03:17:37.986Z,100331.22
2022-12-09T03:20:11.394Z,100330.34
2022-12-09T03:22:45.705Z,100322.66
2022-12-09T03:25:20.027Z,100322.66
2022-12-09T03:27:54.778Z,100318.66
2022-12-09T03:30:29.273Z,100314.72
2022-12-09T03:33:00.397Z,100318.13
2022-12-09T03:35:35.701Z,100313.06
2022-12-09T03:38:16.383Z,100321.69
2022-12-09T03:40:47.752Z,100318.28
2022-12-09T03:43:23.664Z,100314.78
2022-12-09T03:45:59.856Z,100305.13
2022-12-09T03:48:29.837Z,100312.34
2022-12-09T03:51:04.579Z,100314.78
2022-12-09T03:53:43.692Z,100314.31
2022-12-09T03:56:19.779Z,100323.31
2022-12-09T03:58:59.166Z,100316.91
2022-12-09T04:01:29.898Z,100317.28
2022-12-09T04:03:59.524Z,100313.97
2022-12-09T04:06:33.908Z,100301.50
2022-12-09T04:09:06.764Z,100309.41
2022-12-09T04:11:41.240Z,100291.94
2022-12-09T04:14:15.351Z,100289.84
2022-12-09T04:16:50.904Z,100308.47
2022-12-09T04:19:20.431Z,100286.34
2022-12-09T04:21:50.000Z,100295.44
2022-12-09T04:24:26.772Z,100299.44
2022-12-09T04:26:56.483Z,100285.47
2022-12-09T04:29:25.986Z,100286.00
2022-12-09T04:31:55.768Z,100282.66
2022-12-09T04:34:25.260Z,100296.38
2022-12-09T04:36:54.516Z,100302.38
2022-12-09T04:39:31.419Z,100300.88
2022-12-09T04:42:01.246Z,100302.59
2022-12-09T04:44:30.541Z,100308.03
2022-12-09T04:46:59.873Z,100309.94
2022-12-09T04:49:29.997Z,100303.50
2022-12-09T04:51:59.434Z,100302.78
2022-12-09T04:54:30.611Z,100306.09
2022-12-09T04:56:59.846Z,100295.66
2022-12-09T04:59:30.160Z,100294.69
2022-12-09T05:01:59.553Z,100292.50
2022-12-09T05:04:29.648Z,100291.38
2022-12-09T05:06:59.418Z,100283.81
2022-12-09T05:09:31.067Z,100282.94
2022-12-09T05:12:00.527Z,100282.94
2022-12-09T05:14:30.175Z,100285.00
2022-12-09T05:16:59.640Z,100281.84
2022-12-09T05:19:29.645Z,100280.97
2022-12-09T05:21:59.446Z,100288.63
2022-12-09T05:24:31.272Z,100285.56
2022-12-09T05:27:00.476Z,100287.72
2022-12-09T05:29:29.961Z,100295.69
2022-12-09T05:31:59.592Z,100270.47
2022-12-09T05:34:29.176Z,100280.59
2022-12-09T05:36:58.895Z,100241.50
2022-12-09T05:39:30.383Z,100281.28
2022-12-09T05:41:59.986Z,100276.06
2022-12-09T05:44:30.245Z,100279.31
2022-12-09T05:46:59.745Z,100277.22
2022-12-09T05:49:29.450Z,100267.50
2022-12-09T05:51:59.084Z,100262.94
2022-12-09T05:54:33.180Z,100266.75
2022-12-09T05:57:03.750Z,100274.47
2022-12-09T05:59:33.357Z,100274.09
2022-12-09T06:02:10.238Z,100273.41
2022-12-09T06:04:40.221Z,100269.94
2022-12-09T06:07:09.646Z,100272.63
2022-12-09T06:09:41.187Z,100264.56
2022-12-09T06:12:15.835Z,100274.28
2022-12-09T06:14:45.398Z,100257.75
2022-12-09T06:17:15.063Z,100264.63
2022-12-09T06:19:49.927Z,100257.50
2022-12-09T06:22:19.343Z,100266.94
2022-12-09T06:24:56.869Z,100261.72
2022-12-09T06:27:32.592Z,100265.97
2022-12-09T06:30:02.657Z,100260.91
2022-12-09T06:32:34.488Z,100266.22
2022-12-09T06:37:44.255Z,100267.78
2022-12-09T06:43:02.644Z,100266.31
2022-12-09T06:45:38.356Z,100267.41
2022-12-09T06:48:08.530Z,100248.91
2022-12-09T06:50:46.463Z,100269.16
2022-12-09T06:53:16.003Z,100254.59
2022-12-09T06:55:53.596Z,100238.91
2022-12-09T06:58:23.277Z,100259.34
2022-12-09T07:01:05.459Z,100264.78
2022-12-09T07:03:40.084Z,100253.25
2022-12-09T07:06:18.774Z,100230.38
2022-12-09T07:08:48.512Z,100213.81
2022-12-09T07:11:20.133Z,100238.13
2022-12-09T07:13:52.203Z,100242.81
2022-12-09T07:16:22.119Z,100237.81
2022-12-09T07:18:52.705Z,100232.75
2022-12-09T07:21:24.041Z,100245.25
2022-12-09T07:23:53.981Z,100243.59
2022-12-09T07:26:25.245Z,100254.88
2022-12-09T07:28:54.993Z,100234.47
2022-12-09T07:31:26.696Z,100239.69
2022-12-09T07:34:02.068Z,100235.13
2022-12-09T07:36:34.437Z,100239.38
2022-12-09T07:39:10.383Z,100255.81
2022-12-09T07:41:48.392Z,100259.28
2022-12-09T07:44:22.890Z,100252.91
2022-12-09T07:46:57.499Z,100229.28
2022-12-09T07:49:27.441Z,100252.75
2022-12-09T07:51:56.746Z,100244.94
2022-12-09T07:54:31.408Z,100237.91
2022-12-09T07:57:03.038Z,100241.09
2022-12-09T07:59:32.961Z,100239.84
2022-12-09T08:02:06.519Z,100240.78
2022-12-09T08:04:37.700Z,100232.09
2022-12-09T08:07:07.405Z,100223.19
2022-12-09T08:09:36.832Z,100222.56
2022-12-09T08:12:09.566Z,100214.53
2022-12-09T08:17:21.446Z,100214.31
2022-12-09T08:19:52.178Z,100211.16
2022-12-09T08:22:21.895Z,100196.03
2022-12-09T08:24:51.571Z,100178.44
2022-12-09T08:27:28.156Z,100194.94
2022-12-09T08:30:04.521Z,100192.22
2022-12-09T08:32:39.297Z,100196.19
2022-12-09T08:35:14.993Z,100180.72
2022-12-09T08:37:45.200Z,100183.19
2022-12-09T08:40:16.233Z,100180.00
2022-12-09T08:42:48.424Z,100172.50
2022-12-09T08:45:18.227Z,100147.31
2022-12-09T08:47:47.683Z,100140.47
2022-12-09T08:50:17.799Z,100153.16
2022-12-09T08:52:47.335Z,100152.44
2022-12-09T08:55:17.055Z,100152.09
2022-12-09T08:57:48.330Z,100160.38
2022-12-09T09:00:19.000Z,100144.56
2022-12-09T09:02:53.862Z,100125.03
2022-12-09T09:05:23.790Z,100136.59
2022-12-09T09:07:54.189Z,100126.13
2022-12-09T09:10:23.982Z,100133.28
2022-12-09T09:12:55.670Z,100137.94
2022-12-09T09:15:27.023Z,100138.50
2022-12-09T09:17:56.612Z,100128.38
2022-12-09T09:20:25.936Z,100125.69
2022-12-09T09:23:03.101Z,100124.91
2022-12-09T09:25:33.378Z,100118.81
2022-12-09T09:28:04.960Z,100122.06
2022-12-09T09:30:34.624Z,100118.38
2022-12-09T09:33:04.335Z,100121.22
2022-12-09T09:35:46.852Z,100118.31
2022-12-09T09:38:16.335Z,100119.31
2022-12-09T09:40:45.814Z,100109.56
2022-12-09T09:43:23.715Z,100108.41
2022-12-09T09:45:55.198Z,100100.03
2022-12-09T09:48:29.678Z,100094.53
2022-12-09T09:51:02.973Z,100076.13
2022-12-09T09:53:36.434Z,100095.66
2022-12-09T09:56:15.090Z,100091.44
2022-12-09T09:58:52.115Z,100065.72
2022-12-09T10:01:24.904Z,100083.28
2022-12-09T10:04:03.103Z,100044.31
2022-12-09T10:06:39.246Z,100085.66
2022-12-09T10:09:19.759Z,100064.00
2022-12-09T10:11:58.383Z,100055.47
2022-12-09T10:14:43.614Z,100073.06
2022-12-09T10:17:25.367Z,100065.91
2022-12-09T10:22:44.831Z,100063.53
2022-12-09T10:25:21.995Z,100062.03
2022-12-09T10:27:57.532Z,100053.44
2022-12-09T10:30:41.832Z,100066.09
2022-12-09T10:33:16.148Z,100061.69
2022-12-09T10:35:46.753Z,100053.84
2022-12-09T10:38:18.872Z,100055.97
2022-12-09T10:40:59.205Z,100042.28
2022-12-09T10:43:36.531Z,100054.88
2022-12-09T10:46:22.936Z,100055.31
2022-12-09T10:49:01.364Z,100053.22
2022-12-09T10:51:32.812Z,100054.44
2022-12-09T10:54:05.731Z,100042.06
2022-12-09T10:56:37.081Z,100024.84
2022-12-09T10:59:29.229Z,100037.28
2022-12-09T11:02:03.030Z,100026.75
2022-12-09T11:04:35.066Z,100023.72
2022-12-09T11:07:06.856Z,100020.16
2022-12-09T11:09:38.684Z,100024.56
2022-12-09T11:12:09.313Z,100028.19
2022-12-09T11:14:41.371Z,100022.78
2022-12-09T11:17:21.780Z,100030.16
2022-12-09T11:19:54.288Z,100014.03
2022-12-09T11:22:29.077Z,100012.22
2022-12-09T11:25:17.551Z,100007.16
2022-12-09T11:27:57.007Z,100016.47
2022-12-09T11:30:32.657Z,100023.66
2022-12-09T11:33:25.349Z,100024.00
2022-12-09T11:39:09.304Z,99998.13
2022-12-09T11:41:59.386Z,100003.84
2022-12-09T11:44:32.089Z,99978.25
2022-12-09T11:47:03.680Z,99983.88
2022-12-09T11:49:37.834Z,99986.56
2022-12-09T11:52:23.386Z,99988.88
2022-12-09T11:54:58.808Z,99986.03
2022-12-09T11:57:32.670Z,99987.91
2022-12-09T12:00:06.468Z,99993.13
2022-12-09T12:02:47.979Z,99988.44
2022-12-09T12:05:25.127Z,99993.25
2022-12-09T12:08:14.078Z,99984.75
2022-12-09T12:10:46.672Z,99984.16
2022-12-09T12:13:22.723Z,99991.53
2022-12-09T12:15:57.533Z,99989.31
2022-12-09T12:18:31.374Z,99977.94
2022-12-09T12:21:30.786Z,100002.00
2022-12-09T12:24:31.399Z,99994.56
2022-12-09T12:27:12.383Z,100000.91
2022-12-09T12:29:55.258Z,99992.13
2022-12-09T12:32:52.286Z,99990.72
2022-12-09T12:35:47.619Z,99956.59
2022-12-09T12:38:24.731Z,99997.44
2022-12-09T12:41:00.908Z,99998.94
2022-12-09T12:44:02.911Z,99994.03
2022-12-09T12:46:44.267Z,99990.06
2022-12-09T12:55:21.964Z,99994.53
2022-12-09T12:58:00.994Z,99953.78
2022-12-09T13:00:39.731Z,99992.69
2022-12-09T13:03:21.625Z,99981.44
2022-12-09T13:05:54.788Z,99990.78
2022-12-09T13:08:28.808Z,99986.13
2022-12-09T13:11:06.439Z,99999.84
2022-12-09T13:13:46.727Z,99982.00
2022-12-09T13:16:21.200Z,99989.59
2022-12-09T13:18:51.387Z,99984.94
2022-12-09T13:21:21.645Z,99972.09
2022-12-09T13:24:04.728Z,99974.84
2022-12-09T13:26:51.544Z,99991.63
2022-12-09T13:29:35.434Z,99979.47
2022-12-09T13:32:14.030Z,99987.53
2022-12-09T13:34:54.007Z,99982.63
2022-12-09T13:37:56.306Z,99989.38
2022-12-09T13:40:39.926Z,99977.59
2022-12-09T13:43:26.619Z,99976.22
2022-12-09T13:45:58.739Z,99975.66
2022-12-09T13:48:46.732Z,99972.72
2022-12-09T13:51:16.583Z,99937.81
2022-12-09T13:53:54.167Z,99972.53
2022-12-09T13:56:32.524Z,99958.53
2022-12-09T13:59:37.546Z,99964.81
2022-12-09T14:02:17.079Z,99952.63
2022-12-09T14:04:55.547Z,99949.06
2022-12-09T14:07:34.096Z,99945.75
2022-12-09T14:10:03.389Z,99932.94
2022-12-09T14:13:22.133Z,99949.38
2022-12-09T14:16:15.848Z,99951.88
2022-12-09T14:18:46.129Z,99954.06
2022-12-09T14:24:35.000Z,99941.56
2022-12-09T14:27:12.771Z,99943.53
2022-12-09T14:29:53.048Z,99928.91
2022-12-09T14:32:32.604Z,99923.16
2022-12-09T14:35:19.059Z,99928.22
2022-12-09T14:38:00.358Z,99922.03
2022-12-09T14:40:41.387Z,99920.56
2022-12-09T14:43:24.762Z,99917.69
2022-12-09T14:46:04.698Z,99911.75
2022-12-09T14:48:39.862Z,99918.97
2022-12-09T14:51:20.803Z,99908.50
2022-12-09T14:53:53.472Z,99902.16
2022-12-09T14:56:24.369Z,99922.56
2022-12-09T14:58:57.271Z,99900.28
2022-12-09T15:01:27.010Z,99894.03
2022-12-09T15:04:05.480Z,99894.94
2022-12-09T15:06:36.202Z,99902.22
2022-12-09T15:09:05.786Z,99895.13
2022-12-09T15:11:42.340Z,99867.56
2022-12-09T15:14:24.544Z,99890.94
2022-12-09T15:16:59.296Z,99904.41
2022-12-09T15:20:01.529Z,99910.53
2022-12-09T15:22:25.078Z,99899.63
2022-12-09T15:24:58.270Z,99893.25
2022-12-09T15:27:28.203Z,99875.06
2022-12-09T15:29:57.372Z,99911.97
2022-12-09T15:32:32.626Z,99914.00
2022-12-09T15:35:23.316Z,99914.94
2022-12-09T15:38:01.859Z,99914.72
2022-12-09T15:40:34.571Z,99879.25
2022-12-09T15:43:07.926Z,99903.69
2022-12-09T15:45:45.550Z,99902.66
2022-12-09T15:48:20.044Z,99904.69
2022-12-09T15:50:55.319Z,99906.00
2022-12-09T15:53:41.295Z,99904.31
2022-12-09T15:56:15.095Z,99896.88
2022-12-09T15:58:49.955Z,99887.84
2022-12-09T16:01:29.999Z,99892.41
2022-12-09T16:04:02.966Z,99889.88
2022-12-09T16:06:37.116Z,99885.38
2022-12-09T16:09:14.094Z,99875.53
2022-12-09T16:11:46.457Z,99871.47
2022-12-09T16:14:17.359Z,99863.63
2022-12-09T16:17:00.045Z,99871.41
2022-12-09T16:19:35.527Z,99869.13
2022-12-09T16:22:10.808Z,99874.09
2022-12-09T16:25:13.487Z,99876.03
2022-12-09T16:27:48.030Z,99879.72
2022-12-09T16:30:22.648Z,99895.59
2022-12-09T16:32:53.851Z,99891.44
2022-12-09T16:35:35.613Z,99867.31
2022-12-09T16:38:21.395Z,99865.94
2022-12-09T16:41:13.907Z,99865.81
2022-12-09T16:43:58.575Z,99871.53
2022-12-09T16:46:42.370Z,99857.78
2022-12-09T16:49:16.599Z,99857.94
2022-12-09T16:51:45.660Z,99854.06
2022-12-09T16:54:20.436Z,99855.63
2022-12-09T16:56:51.691Z,99825.88
2022-12-09T16:59:20.892Z,99811.84
2022-12-09T17:01:50.287Z,99852.69
2022-12-09T17:04:23.680Z,99871.66
2022-12-09T17:06:52.933Z,99870.66
2022-12-09T17:09:29.072Z,99871.13
2022-12-09T17:11:58.304Z,99859.66
2022-12-09T17:14:27.315Z,99866.84
2022-12-09T17:16:56.507Z,99873.84
2022-12-09T17:19:25.804Z,99874.72
2022-12-09T17:21:55.275Z,99870.38
2022-12-09T17:24:32.644Z,99861.53
2022-12-09T17:27:01.821Z,99845.78
2022-12-09T17:29:31.039Z,99860.72
2022-12-09T17:32:00.409Z,99860.84
2022-12-09T17:34:29.565Z,99863.44
2022-12-09T17:36:59.081Z,99864.31
2022-12-09T17:39:32.059Z,99870.56
2022-12-09T17:42:01.484Z,99873.41
2022-12-09T17:44:30.800Z,99872.66
2022-12-09T17:47:00.111Z,99858.34
2022-12-09T17:49:29.373Z,99852.13
2022-12-09T17:51:58.865Z,99851.69
2022-12-09T17:54:29.959Z,99869.91
2022-12-09T17:56:59.122Z,99867.53
2022-12-09T17:59:28.416Z,99848.63
2022-12-09T18:01:57.670Z,99867.38
2022-12-09T18:04:31.901Z,99865.75
2022-12-09T18:07:06.148Z,99828.84
2022-12-09T18:09:37.248Z,99857.47
2022-12-09T18:12:12.103Z,99857.41
2022-12-09T18:14:41.234Z,99853.28
2022-12-09T18:17:10.644Z,99846.56
2022-12-09T18:19:40.278Z,99835.84
2022-12-09T18:22:09.692Z,99829.09
2022-12-09T18:24:40.856Z,99822.53
2022-12-09T18:27:10.150Z,99777.47
2022-12-09T18:32:20.934Z,99813.16
2022-12-09T18:34:50.679Z,99806.66
2022-12-09T18:37:25.661Z,99801.88
2022-12-09T18:40:04.611Z,99809.19
2022-12-09T18:42:39.086Z,99806.97
2022-12-09T18:45:10.148Z,99811.56
2022-12-09T18:47:39.897Z,99810.13
2022-12-09T18:50:10.858Z,99809.41
2022-12-09T18:52:48.243Z,99809.78
2022-12-09T18:55:19.765Z,99801.19
2022-12-09T18:57:49.140Z,99803.19
2022-12-09T19:00:18.773Z,99804.97
2022-12-09T19:02:48.145Z,99794.03
2022-12-09T19:05:17.418Z,99794.97
2022-12-09T19:07:46.837Z,99794.84
2022-12-09T19:10:16.409Z,99788.97
2022-12-09T19:12:50.573Z,99776.31
2022-12-09T19:15:23.422Z,99783.19
2022-12-09T19:17:52.696Z,99780.94
2022-12-09T19:20:22.704Z,99776.88
2022-12-09T19:22:51.923Z,99768.84
2022-12-09T19:25:21.152Z,99776.91
2022-12-09T19:27:53.783Z,99764.06
2022-12-09T19:30:23.192Z,99754.31
2022-12-09T19:32:53.517Z,99765.13
2022-12-09T19:35:23.092Z,99767.84
2022-12-09T19:37:56.643Z,99775.22
2022-12-09T19:40:34.665Z,99766.28
2022-12-09T19:43:06.880Z,99767.16
2022-12-09T19:45:36.070Z,99770.13
2022-12-09T19:48:05.180Z,99769.44
2022-12-09T19:50:42.113Z,99769.63
2022-12-09T19:53:11.707Z,99769.69
2022-12-09T19:55:40.862Z,99768.66
2022-12-09T19:58:22.156Z,99739.13
2022-12-09T20:00:51.264Z,99771.06
2022-12-09T20:03:20.347Z,99774.88
2022-12-09T20:05:51.645Z,99746.47
2022-12-09T20:08:20.834Z,99765.06
2022-12-09T20:10:50.319Z,99737.97
2022-12-09T20:13:21.721Z,99764.13
2022-12-09T20:15:50.921Z,99768.53
2022-12-09T20:18:25.129Z,99771.06
2022-12-09T20:20:54.354Z,99752.03
2022-12-09T20:23:23.478Z,99770.19
2022-12-09T20:25:52.710Z,99735.00
2022-12-09T20:28:23.871Z,99765.94
2022-12-09T20:30:53.057Z,99753.09
2022-12-09T20:33:22.155Z,99771.56
2022-12-09T20:35:51.226Z,99759.50
2022-12-09T20:38:20.684Z,99782.72
2022-12-09T20:40:49.748Z,99789.72
2022-12-09T20:43:18.885Z,99783.97
2022-12-09T20:45:50.018Z,99769.56
2022-12-09T20:48:19.839Z,99793.19
2022-12-09T20:50:49.126Z,99795.91
2022-12-09T20:53:18.471Z,99772.75
2022-12-09T20:55:57.421Z,99769.91
2022-12-09T20:58:32.399Z,99765.75
2022-12-09T21:01:09.641Z,99770.66
2022-12-09T21:03:39.184Z,99762.00
2022-12-09T21:06:09.347Z,99749.41
2022-12-09T21:08:38.959Z,99746.91
2022-12-09T21:11:10.480Z,99731.34
2022-12-09T21:13:41.740Z,99762.63
2022-12-09T21:16:20.650Z,99765.34
2022-12-09T21:18:50.805Z,99761.84
2022-12-09T21:21:31.683Z,99762.88
2022-12-09T21:24:01.450Z,99771.66
2022-12-09T21:26:31.037Z,99764.84
2022-12-09T21:29:01.786Z,99736.16
2022-12-09T21:31:34.864Z,99755.25
2022-12-09T21:34:06.011Z,99757.69
2022-12-09T21:36:37.739Z,99745.81
2022-12-09T21:39:08.676Z,99757.06
2022-12-09T21:41:39.048Z,99748.78
2022-12-09T21:44:17.929Z,99741.50
2022-12-09T21:46:49.352Z,99735.69
2022-12-09T21:49:23.631Z,99729.06
2022-12-09T21:51:52.798Z,99726.84
2022-12-09T21:54:22.053Z,99726.75
2022-12-09T21:57:07.706Z,99714.56
2022-12-09T21:59:36.911Z,99715.09
2022-12-09T22:02:08.090Z,99704.03
2022-12-09T22:04:42.264Z,99713.44
2022-12-09T22:07:11.467Z,99693.03
2022-12-09T22:09:40.599Z,99677.06
2022-12-09T22:12:10.399Z,99695.00
2022-12-09T22:14:39.535Z,99694.56
2022-12-09T22:17:16.362Z,99684.78
2022-12-09T22:19:46.483Z,99684.22
2022-12-09T22:22:15.572Z,99684.34
2022-12-09T22:24:49.744Z,99673.63
2022-12-09T22:27:18.992Z,99698.63
2022-12-09T22:29:48.032Z,99704.53
2022-12-09T22:32:19.152Z,99712.09
2022-12-09T22:34:48.930Z,99702.69
2022-12-09T22:37:42.322Z,99709.56
2022-12-09T22:40:09.844Z,99714.25
2022-12-09T22:42:44.327Z,99710.84
2022-12-09T22:45:18.675Z,99702.94
2022-12-09T22:47:49.922Z,99697.66
2022-12-09T22:50:24.112Z,99691.97
2022-12-09T22:52:53.371Z,99699.88
2022-12-09T22:55:27.719Z,99695.16
2022-12-09T22:57:58.427Z,99708.25
2022-12-09T23:00:27.525Z,99704.28
2022-12-09T23:02:59.276Z,99702.94
2022-12-09T23:05:37.114Z,99679.03
2022-12-09T23:08:06.898Z,99688.63
2022-12-09T23:10:36.000Z,99691.88
2022-12-09T23:13:05.307Z,99701.09
2022-12-09T23:15:34.845Z,99665.34
2022-12-09T23:18:06.216Z,99690.59
2022-12-09T23:23:15.863Z,99699.78
2022-12-09T23:25:45.108Z,99694.88
2022-12-09T23:28:14.126Z,99694.25
2022-12-09T23:30:43.487Z,99697.75
2022-12-09T23:33:19.810Z,99697.34
2022-12-09T23:35:49.991Z,99703.19
2022-12-09T23:38:24.756Z,99689.22
2022-12-09T23:40:54.623Z,99681.78
2022-12-09T23:43:23.927Z,99705.66
2022-12-09T23:45:53.111Z,99708.38
2022-12-09T23:48:29.419Z,99712.22
2022-12-09T23:50:59.685Z,99711.69
2022-12-09T23:53:28.826Z,99712.72
2022-12-09T23:55:58.129Z,99694.19
2022-12-09T23:58:27.166Z,99700.66
